Aviation Digital Data Service (ADDS)

Output produced by METARs form (1456 UTC 26 November 2014)
found at http://aviationweather.gov/adds/metars/
 
KJFK 261455Z 2615/2718 03013G19KT 4SM -RA BR OVC008 
     TEMPO 2615/2617 2SM RAPL BR 
     FM261700 02015G21KT 2SM -RASN BR OVC007 
     FM262100 01021G30KT 1SM -SNRA OVC004 
     FM270200 33018G28KT 6SM -RASN OVC020 
     FM270700 32011KT P6SM BKN030 
     FM271200 31008KT P6SM BKN050